Time;durP1;ratioP1;P1;durP2;ratioP2;P2;SDS_P1;SDS_P2;PMS_P1;PMS_P2;Temp;Humidity;BMP_temperature;BMP_pressure;BME280_temperature;BME280_humidity;BME280_pressure;Samples;Min_cycle;Max_cycle;Signal;HPM_P1;HPM_P2
2022/11/03 00:00:08;;;;;;;2.70;1.87;;;;;;;;;;5047874;28;19917;-67
2022/11/03 00:02:35;;;;;;;2.37;1.57;;;;;;;;;;5052331;28;20032;-66
2022/11/03 00:06:03;;;;;;;3.03;1.43;;;;;;;;;;5051536;28;20025;-66
2022/11/03 00:07:48;;;;;;;2.20;1.50;;;;;;;;;;5046755;28;20041;-66
2022/11/03 00:10:14;;;;;;;5.67;2.20;;;;;;;;;;5046323;28;20111;-67
2022/11/03 00:12:41;;;;;;;3.03;1.80;;;;;;;;;;5043179;28;20028;-67
2022/11/03 00:15:08;;;;;;;2.70;1.97;;;;;;;;;;5047641;28;20108;-68
2022/11/03 00:17:34;;;;;;;1.83;1.47;;;;;;;;;;5052201;28;20039;-66
2022/11/03 00:20:01;;;;;;;1.37;1.10;;;;;;;;;;5051713;28;20503;-67
2022/11/03 00:22:28;;;;;;;7.80;1.83;;;;;;;;;;5052065;28;20029;-66
2022/11/03 00:24:55;;;;;;;2.20;1.70;;;;;;;;;;5051862;28;20021;-66
2022/11/03 00:27:21;;;;;;;3.90;2.27;;;;;;;;;;5051122;28;20048;-67
2022/11/03 00:29:48;;;;;;;3.73;1.27;;;;;;;;;;5046439;28;20480;-67
2022/11/03 00:32:16;;;;;;;3.00;1.97;;;;;;;;;;5047282;28;20033;-64
2022/11/03 00:34:43;;;;;;;1.33;1.00;;;;;;;;;;5046976;28;20596;-65
2022/11/03 00:37:09;;;;;;;1.03;0.80;;;;;;;;;;5047037;28;20036;-65
2022/11/03 00:39:36;;;;;;;3.83;1.97;;;;;;;;;;5052095;28;20025;-65
2022/11/03 00:42:03;;;;;;;1.70;1.40;;;;;;;;;;5052094;28;20071;-65
2022/11/03 00:44:29;;;;;;;3.87;2.40;;;;;;;;;;5051439;28;20029;-64
2022/11/03 00:46:56;;;;;;;7.10;2.57;;;;;;;;;;5053237;28;20029;-66
2022/11/03 00:49:23;;;;;;;2.80;1.67;;;;;;;;;;5056367;28;20025;-68
2022/11/03 00:51:49;;;;;;;1.17;1.07;;;;;;;;;;5051068;28;20025;-69
2022/11/03 00:54:16;;;;;;;3.03;2.20;;;;;;;;;;5050323;28;20033;-67
2022/11/03 00:56:43;;;;;;;1.57;1.30;;;;;;;;;;5050061;28;20029;-67
2022/11/03 00:59:10;;;;;;;7.53;2.30;;;;;;;;;;5050429;28;20063;-68
2022/11/03 01:01:39;;;;;;;2.40;1.87;;;;;;;;;;5054098;28;20068;-67
2022/11/03 01:06:53;;;;;;;3.35;2.35;;;;;;;;;;5055849;28;20060;-66
2022/11/03 01:09:19;;;;;;;4.23;2.33;;;;;;;;;;5055506;28;20079;-68
2022/11/03 01:11:59;;;;;;;14.57;3.50;;;;;;;;;;5055616;28;20037;-68
2022/11/03 01:14:33;;;;;;;5.00;2.53;;;;;;;;;;5049977;28;20120;-68
2022/11/03 01:17:00;;;;;;;4.30;2.65;;;;;;;;;;5030760;28;20028;-67
2022/11/03 01:19:27;;;;;;;6.03;2.67;;;;;;;;;;5048005;28;20032;-67
2022/11/03 01:21:54;;;;;;;2.70;2.03;;;;;;;;;;5050209;28;20032;-65
2022/11/03 01:24:21;;;;;;;3.00;2.23;;;;;;;;;;5055033;28;20021;-66
2022/11/03 01:26:48;;;;;;;5.23;2.40;;;;;;;;;;5054827;28;20025;-66
2022/11/03 01:29:14;;;;;;;5.53;2.80;;;;;;;;;;5054371;28;20358;-69
2022/11/03 01:31:41;;;;;;;2.77;2.13;;;;;;;;;;5054016;28;20029;-66
2022/11/03 01:34:09;;;;;;;4.47;2.00;;;;;;;;;;5054465;28;20094;-68
2022/11/03 01:36:36;;;;;;;11.10;2.33;;;;;;;;;;5048744;28;20027;-65
2022/11/03 01:39:03;;;;;;;2.87;1.57;;;;;;;;;;5049559;28;20025;-65
2022/11/03 01:41:31;;;;;;;6.03;4.07;;;;;;;;;;5049902;28;20083;-68
2022/11/03 01:44:23;;;;;;;3.63;2.63;;;;;;;;;;5050220;28;20516;-64
2022/11/03 01:46:56;;;;;;;4.47;2.13;;;;;;;;;;5054328;28;20092;-65
2022/11/03 01:49:27;;;;;;;7.70;3.17;;;;;;;;;;5052080;28;20053;-65
2022/11/03 01:51:57;;;;;;;9.73;7.73;;;;;;;;;;5054609;28;20526;-65
2022/11/03 01:54:25;;;;;;;17.03;12.93;;;;;;;;;;5070085;28;20017;-65
2022/11/03 01:56:52;;;;;;;8.73;7.80;;;;;;;;;;5073140;28;20070;-65
2022/11/03 01:59:21;;;;;;;9.83;3.10;;;;;;;;;;5049280;28;20035;-65
2022/11/03 02:01:48;;;;;;;5.83;2.83;;;;;;;;;;5054544;28;20048;-65
2022/11/03 02:04:18;;;;;;;6.13;3.20;;;;;;;;;;5049802;28;20033;-65
2022/11/03 02:06:45;;;;;;;4.03;3.03;;;;;;;;;;5034255;28;20764;-65
2022/11/03 02:09:12;;;;;;;3.90;2.37;;;;;;;;;;5034752;28;20052;-65
2022/11/03 02:14:24;;;;;;;4.22;2.42;;;;;;;;;;5034698;28;20044;-65
2022/11/03 02:16:55;;;;;;;3.93;2.23;;;;;;;;;;5034822;28;20560;-65
2022/11/03 02:19:33;;;;;;;3.33;2.10;;;;;;;;;;5052780;28;20024;-65
2022/11/03 02:22:04;;;;;;;2.93;1.83;;;;;;;;;;5049003;28;20124;-65
2022/11/03 02:24:50;;;;;;;4.50;2.43;;;;;;;;;;5049045;28;20028;-65
2022/11/03 02:27:17;;;;;;;5.43;2.67;;;;;;;;;;5049340;28;20029;-65
2022/11/03 02:29:44;;;;;;;3.80;2.63;;;;;;;;;;5050391;28;20056;-65
2022/11/03 02:32:28;;;;;;;7.87;3.27;;;;;;;;;;5054257;28;20025;-65
2022/11/03 02:35:07;;;;;;;8.67;4.47;;;;;;;;;;5054181;28;20476;-65
2022/11/03 02:37:39;;;;;;;4.70;3.33;;;;;;;;;;5054246;28;20036;-65
2022/11/03 02:40:09;;;;;;;2.53;2.00;;;;;;;;;;5054018;28;20478;-65
2022/11/03 02:42:37;;;;;;;5.17;2.60;;;;;;;;;;5052364;28;20032;-65
2022/11/03 02:45:07;;;;;;;2.77;2.00;;;;;;;;;;5048912;28;20075;-65
2022/11/03 02:47:34;;;;;;;8.17;3.47;;;;;;;;;;5049187;28;20074;-65
2022/11/03 02:50:06;;;;;;;4.03;2.70;;;;;;;;;;5049102;28;20929;-65
2022/11/03 02:52:44;;;;;;;6.50;2.93;;;;;;;;;;5049110;28;20044;-65
2022/11/03 02:55:32;;;;;;;6.70;2.43;;;;;;;;;;5052375;28;20391;-65
2022/11/03 02:58:01;;;;;;;4.40;2.40;;;;;;;;;;5053626;28;20025;-65
2022/11/03 03:00:30;;;;;;;2.47;1.90;;;;;;;;;;5053852;28;20122;-65
2022/11/03 03:03:02;;;;;;;3.07;1.83;;;;;;;;;;5053680;28;20025;-64
2022/11/03 03:05:31;;;;;;;2.83;1.83;;;;;;;;;;5047403;28;20029;-65
2022/11/03 03:08:01;;;;;;;2.97;2.10;;;;;;;;;;5058699;28;20067;-66
2022/11/03 03:10:33;;;;;;;2.90;1.93;;;;;;;;;;5047945;28;20025;-66
2022/11/03 03:13:00;;;;;;;2.33;1.80;;;;;;;;;;5048435;28;20032;-65
2022/11/03 03:15:40;;;;;;;2.30;1.63;;;;;;;;;;5051268;28;20078;-65
2022/11/03 03:18:13;;;;;;;4.23;2.47;;;;;;;;;;5053389;28;20056;-65
2022/11/03 03:20:46;;;;;;;3.00;2.10;;;;;;;;;;5052575;28;20029;-65
2022/11/03 03:23:17;;;;;;;2.40;1.93;;;;;;;;;;5053282;28;20061;-65
2022/11/03 03:26:05;;;;;;;3.93;2.20;;;;;;;;;;5053581;28;20028;-65
2022/11/03 03:28:31;;;;;;;2.23;1.70;;;;;;;;;;5048394;28;20051;-65
2022/11/03 03:31:00;;;;;;;1.57;1.27;;;;;;;;;;5047820;28;20045;-65
2022/11/03 03:33:28;;;;;;;2.80;1.90;;;;;;;;;;5048151;28;20021;-65
2022/11/03 03:35:56;;;;;;;4.07;2.00;;;;;;;;;;5048005;28;20017;-65
2022/11/03 03:38:28;;;;;;;1.57;1.17;;;;;;;;;;5052209;28;20468;-65
2022/11/03 03:40:55;;;;;;;2.83;1.50;;;;;;;;;;5053060;28;20035;-65
2022/11/03 03:43:23;;;;;;;2.03;1.37;;;;;;;;;;5058439;28;20463;-64
2022/11/03 03:45:51;;;;;;;3.70;2.10;;;;;;;;;;5054325;28;20033;-65
2022/11/03 03:48:18;;;;;;;1.73;0.87;;;;;;;;;;5038469;28;20523;-66
2022/11/03 03:50:46;;;;;;;2.63;2.03;;;;;;;;;;5047702;28;20055;-65
2022/11/03 03:53:13;;;;;;;2.07;1.00;;;;;;;;;;5047855;28;20028;-65
2022/11/03 03:55:41;;;;;;;1.50;1.20;;;;;;;;;;5047857;28;20792;-65
2022/11/03 03:58:08;;;;;;;3.37;1.67;;;;;;;;;;5047536;28;20059;-65
2022/11/03 04:00:38;;;;;;;1.80;1.27;;;;;;;;;;5050903;28;20456;-65
2022/11/03 04:03:05;;;;;;;3.03;1.93;;;;;;;;;;5052121;28;20036;-65
2022/11/03 04:05:32;;;;;;;1.73;1.40;;;;;;;;;;5052507;28;20100;-65
2022/11/03 04:07:59;;;;;;;5.40;3.17;;;;;;;;;;5052750;28;20017;-64
2022/11/03 04:10:25;;;;;;;2.90;1.73;;;;;;;;;;5052474;28;20156;-65
2022/11/03 04:24:02;;;;;;;2.23;1.60;;;;;;;;;;5052056;28;20048;-64
2022/11/03 04:26:29;;;;;;;1.20;0.97;;;;;;;;;;5052374;28;20028;-65
2022/11/03 04:28:55;;;;;;;3.80;2.10;;;;;;;;;;5052383;28;20027;-64
2022/11/03 04:31:22;;;;;;;0.97;0.87;;;;;;;;;;5052129;28;20162;-65
2022/11/03 04:33:49;;;;;;;1.30;1.10;;;;;;;;;;5051176;28;20032;-65
2022/11/03 04:36:25;;;;;;;1.80;1.50;;;;;;;;;;5046935;28;20033;-65
2022/11/03 04:38:52;;;;;;;3.07;2.17;;;;;;;;;;5047182;28;20464;-65
2022/11/03 04:41:28;;;;;;;4.23;2.10;;;;;;;;;;5046790;28;20037;-65
2022/11/03 04:43:56;;;;;;;5.17;1.60;;;;;;;;;;5047515;28;20108;-64
2022/11/03 04:46:24;;;;;;;2.07;1.53;;;;;;;;;;5052165;28;20024;-65
2022/11/03 04:48:53;;;;;;;1.73;1.17;;;;;;;;;;5051962;28;20416;-65
2022/11/03 04:51:22;;;;;;;2.77;1.80;;;;;;;;;;5052073;28;20017;-65
2022/11/03 04:53:52;;;;;;;1.63;1.10;;;;;;;;;;5052057;28;20032;-64
2022/11/03 04:56:20;;;;;;;2.60;1.57;;;;;;;;;;5050456;28;20564;-65
2022/11/03 04:58:47;;;;;;;3.10;1.87;;;;;;;;;;5046806;28;20029;-67
2022/11/03 05:01:14;;;;;;;2.63;1.97;;;;;;;;;;5046798;28;20118;-67
2022/11/03 05:03:43;;;;;;;1.47;1.10;;;;;;;;;;5046763;28;20021;-64
2022/11/03 05:06:16;;;;;;;3.53;1.80;;;;;;;;;;5047194;28;20017;-64
2022/11/03 05:08:45;;;;;;;1.10;1.00;;;;;;;;;;5052186;28;20057;-66
2022/11/03 05:11:14;;;;;;;2.47;1.73;;;;;;;;;;5051852;28;20028;-66
2022/11/03 05:13:41;;;;;;;2.93;1.70;;;;;;;;;;5051553;28;20033;-65
2022/11/03 05:16:08;;;;;;;1.60;1.20;;;;;;;;;;5051738;28;20032;-66
2022/11/03 05:18:36;;;;;;;3.80;2.00;;;;;;;;;;5050567;28;20473;-66
2022/11/03 05:21:05;;;;;;;1.97;1.47;;;;;;;;;;5046534;28;20025;-66
2022/11/03 05:23:37;;;;;;;2.33;1.83;;;;;;;;;;5045553;28;20376;-66
2022/11/03 05:26:04;;;;;;;2.67;2.13;;;;;;;;;;5046772;28;20439;-66
2022/11/03 05:28:39;;;;;;;2.13;1.43;;;;;;;;;;5047201;28;20071;-63
2022/11/03 05:31:05;;;;;;;;;;;;;;;;;;5052121;28;20490;-65
2022/11/03 05:33:34;;;;;;;1.43;1.10;;;;;;;;;;5053895;28;19909;-67
2022/11/03 05:36:02;;;;;;;4.67;2.47;;;;;;;;;;5055039;28;20031;-66
2022/11/03 05:38:31;;;;;;;13.80;1.63;;;;;;;;;;5055383;28;20025;-64
2022/11/03 05:40:58;;;;;;;3.20;2.00;;;;;;;;;;5054226;28;20079;-66
2022/11/03 05:43:26;;;;;;;3.60;1.87;;;;;;;;;;5050050;28;20114;-65
2022/11/03 05:45:55;;;;;;;8.63;2.03;;;;;;;;;;5050230;28;20021;-64
2022/11/03 05:48:30;;;;;;;13.63;1.53;;;;;;;;;;5050133;28;20426;-64
2022/11/03 05:50:59;;;;;;;2.23;1.33;;;;;;;;;;5050623;28;20101;-64
2022/11/03 05:53:25;;;;;;;2.67;1.73;;;;;;;;;;5054605;28;20033;-65
2022/11/03 05:55:53;;;;;;;2.43;2.03;;;;;;;;;;5054952;28;20541;-64
2022/11/03 05:58:20;;;;;;;3.60;1.27;;;;;;;;;;5054724;28;20377;-64
2022/11/03 06:00:46;;;;;;;3.77;1.70;;;;;;;;;;5054813;28;20029;-64
2022/11/03 06:03:18;;;;;;;1.50;1.13;;;;;;;;;;5039026;28;20021;-63
2022/11/03 06:05:45;;;;;;;1.57;1.33;;;;;;;;;;5029429;28;20041;-63
2022/11/03 06:08:32;;;;;;;2.57;1.97;;;;;;;;;;5030856;28;20029;-63
2022/11/03 06:11:00;;;;;;;2.63;1.77;;;;;;;;;;5049024;28;20043;-63
2022/11/03 06:13:35;;;;;;;2.00;1.63;;;;;;;;;;5050095;28;20480;-64
2022/11/03 06:16:03;;;;;;;1.47;1.23;;;;;;;;;;5054387;28;20067;-63
2022/11/03 06:18:32;;;;;;;1.33;1.23;;;;;;;;;;5054459;28;20078;-63
2022/11/03 06:21:02;;;;;;;2.70;1.60;;;;;;;;;;5053990;28;20036;-63
2022/11/03 06:23:29;;;;;;;1.50;1.27;;;;;;;;;;5054184;28;20032;-63
2022/11/03 06:25:56;;;;;;;5.80;1.97;;;;;;;;;;5052715;28;20163;-63
2022/11/03 06:28:26;;;;;;;1.77;1.40;;;;;;;;;;5048486;28;20032;-63
2022/11/03 06:30:52;;;;;;;1.93;1.73;;;;;;;;;;5048629;28;20511;-63
2022/11/03 06:33:22;;;;;;;2.77;1.80;;;;;;;;;;5048968;28;20394;-63
2022/11/03 06:35:50;;;;;;;2.27;1.73;;;;;;;;;;5049770;28;20205;-63
2022/11/03 06:38:25;;;;;;;1.30;1.07;;;;;;;;;;5054084;28;20029;-64
2022/11/03 06:40:52;;;;;;;2.10;1.38;;;;;;;;;;5053838;28;20029;-63
2022/11/03 06:43:27;;;;;;;2.13;1.43;;;;;;;;;;5052869;28;20033;-63
2022/11/03 06:45:53;;;;;;;;;;;;;;;;;;5053999;28;20480;-63
2022/11/03 06:48:24;;;;;;;3.00;2.30;;;;;;;;;;5051901;28;19909;-63
2022/11/03 06:50:51;;;;;;;2.17;1.63;;;;;;;;;;5047815;28;20048;-63
2022/11/03 06:53:20;;;;;;;3.70;2.70;;;;;;;;;;5048525;28;20498;-63
2022/11/03 06:55:48;;;;;;;2.03;1.70;;;;;;;;;;5048217;28;20033;-63
2022/11/03 06:58:16;;;;;;;3.20;2.33;;;;;;;;;;5049175;28;20079;-63
2022/11/03 07:00:44;;;;;;;2.00;1.80;;;;;;;;;;5053523;28;20032;-63
2022/11/03 07:03:10;;;;;;;2.97;2.17;;;;;;;;;;5053423;28;20025;-63
2022/11/03 07:05:37;;;;;;;5.93;3.13;;;;;;;;;;5053590;28;20550;-63
2022/11/03 07:08:14;;;;;;;4.17;2.47;;;;;;;;;;5053574;28;20079;-63
2022/11/03 07:10:41;;;;;;;2.83;2.40;;;;;;;;;;5051055;28;20471;-63
2022/11/03 07:13:15;;;;;;;2.50;2.13;;;;;;;;;;5047576;28;20033;-62
2022/11/03 07:15:43;;;;;;;3.90;1.38;;;;;;;;;;5047954;28;20468;-63
2022/11/03 07:18:16;;;;;;;2.80;2.07;;;;;;;;;;5048174;28;20078;-63
2022/11/03 07:20:43;;;;;;;2.60;2.07;;;;;;;;;;5049508;28;20040;-62
2022/11/03 07:23:13;;;;;;;4.97;2.37;;;;;;;;;;5053060;28;20033;-62
2022/11/03 07:25:39;;;;;;;3.13;2.10;;;;;;;;;;5052823;28;20125;-62
2022/11/03 07:28:06;;;;;;;3.73;2.37;;;;;;;;;;5053155;28;20029;-63
2022/11/03 07:30:36;;;;;;;1.67;1.43;;;;;;;;;;5053220;28;20029;-62
2022/11/03 07:33:10;;;;;;;1.70;1.50;;;;;;;;;;5050758;28;20024;-63
2022/11/03 07:35:41;;;;;;;2.60;2.13;;;;;;;;;;5047860;28;20029;-62
2022/11/03 07:38:14;;;;;;;1.87;1.60;;;;;;;;;;5047031;28;20033;-63
2022/11/03 07:40:42;;;;;;;3.30;2.50;;;;;;;;;;5047807;28;20028;-62
2022/11/03 07:43:14;;;;;;;1.57;1.13;;;;;;;;;;5049535;28;20121;-63
2022/11/03 07:45:44;;;;;;;1.27;1.10;;;;;;;;;;5052972;28;20033;-63
2022/11/03 07:48:21;;;;;;;1.80;1.23;;;;;;;;;;5052923;28;20349;-62
2022/11/03 07:50:49;;;;;;;1.50;1.07;;;;;;;;;;5051532;28;20349;-63
2022/11/03 07:53:25;;;;;;;1.93;1.50;;;;;;;;;;5051519;28;20040;-63
2022/11/03 07:55:53;;;;;;;4.00;1.90;;;;;;;;;;5049457;28;20044;-63
2022/11/03 07:58:25;;;;;;;4.87;1.70;;;;;;;;;;5047348;28;20096;-63
2022/11/03 08:00:56;;;;;;;3.47;2.43;;;;;;;;;;5046689;28;20365;-62
2022/11/03 08:03:41;;;;;;;2.80;2.50;;;;;;;;;;5047235;28;20063;-63
2022/11/03 08:06:08;;;;;;;3.22;2.45;;;;;;;;;;5050151;28;20025;-63
2022/11/03 08:08:34;;;;;;;3.30;2.30;;;;;;;;;;5052457;28;20017;-62
2022/11/03 08:11:01;;;;;;;1.67;1.40;;;;;;;;;;5052020;28;20013;-62
2022/11/03 08:13:28;;;;;;;2.00;1.57;;;;;;;;;;5052240;28;20087;-63
2022/11/03 08:15:54;;;;;;;2.30;1.77;;;;;;;;;;5052213;28;20052;-63
2022/11/03 08:18:21;;;;;;;3.63;2.87;;;;;;;;;;5049228;28;20028;-63
2022/11/03 08:20:48;;;;;;;2.07;1.80;;;;;;;;;;5046999;28;20127;-63
2022/11/03 08:23:15;;;;;;;4.67;2.80;;;;;;;;;;5046467;28;20025;-63
2022/11/03 08:25:42;;;;;;;2.43;1.93;;;;;;;;;;5046756;28;20028;-62
2022/11/03 08:28:09;;;;;;;2.27;1.73;;;;;;;;;;5049340;28;20029;-63
2022/11/03 08:30:36;;;;;;;3.30;2.57;;;;;;;;;;5052111;28;20113;-63
2022/11/03 08:33:02;;;;;;;2.10;1.50;;;;;;;;;;5051877;28;20476;-63
2022/11/03 08:35:29;;;;;;;4.13;2.10;;;;;;;;;;5051719;28;20033;-63
2022/11/03 08:37:56;;;;;;;2.33;1.90;;;;;;;;;;5052077;28;20025;-63
2022/11/03 08:40:22;;;;;;;3.93;3.20;;;;;;;;;;5049199;28;20041;-63
2022/11/03 08:42:49;;;;;;;3.70;2.17;;;;;;;;;;5046796;28;20131;-63
2022/11/03 08:45:16;;;;;;;3.30;2.60;;;;;;;;;;5046251;28;20025;-63
2022/11/03 08:47:43;;;;;;;2.97;2.00;;;;;;;;;;5046630;28;20130;-63
2022/11/03 08:50:10;;;;;;;2.63;2.13;;;;;;;;;;5047125;28;20371;-63
2022/11/03 08:52:36;;;;;;;2.80;2.07;;;;;;;;;;5052003;28;20427;-63
2022/11/03 08:55:03;;;;;;;2.00;1.80;;;;;;;;;;5052070;28;20138;-63
2022/11/03 08:57:30;;;;;;;2.97;1.87;;;;;;;;;;5051484;28;20100;-63
2022/11/03 08:59:56;;;;;;;4.93;2.63;;;;;;;;;;5051880;28;20074;-63
2022/11/03 09:02:23;;;;;;;2.83;2.10;;;;;;;;;;5050055;28;20028;-63
2022/11/03 09:04:50;;;;;;;2.67;2.13;;;;;;;;;;5046559;28;20021;-63
2022/11/03 09:07:17;;;;;;;2.13;1.63;;;;;;;;;;5046822;28;20441;-64
2022/11/03 09:09:43;;;;;;;3.73;2.63;;;;;;;;;;5030471;28;20380;-63
2022/11/03 09:12:10;;;;;;;3.63;2.40;;;;;;;;;;5031342;28;20477;-63
2022/11/03 09:14:36;;;;;;;3.60;2.00;;;;;;;;;;5035481;28;20112;-63
2022/11/03 09:17:03;;;;;;;2.87;1.93;;;;;;;;;;5035823;28;20022;-63
2022/11/03 09:19:30;;;;;;;4.30;2.57;;;;;;;;;;5036988;28;20091;-63
2022/11/03 09:21:58;;;;;;;4.10;2.80;;;;;;;;;;5055477;28;20036;-63
2022/11/03 09:24:25;;;;;;;1.93;1.57;;;;;;;;;;5054062;28;20021;-64
2022/11/03 09:26:52;;;;;;;3.07;2.30;;;;;;;;;;5049993;28;20032;-63
2022/11/03 09:29:19;;;;;;;3.77;2.67;;;;;;;;;;5050096;28;20353;-63
2022/11/03 09:31:45;;;;;;;2.80;2.23;;;;;;;;;;5049554;28;20029;-64
2022/11/03 09:34:12;;;;;;;2.17;1.63;;;;;;;;;;5050170;28;20032;-63
2022/11/03 09:36:39;;;;;;;4.97;2.03;;;;;;;;;;5055201;28;20024;-63
2022/11/03 09:39:06;;;;;;;2.50;1.80;;;;;;;;;;5055381;28;20031;-63
2022/11/03 09:41:33;;;;;;;3.50;2.00;;;;;;;;;;5054624;28;20059;-63
2022/11/03 09:44:00;;;;;;;2.47;1.37;;;;;;;;;;5054843;28;20036;-63
2022/11/03 09:46:29;;;;;;;3.83;2.00;;;;;;;;;;5054925;28;20118;-63
2022/11/03 09:48:56;;;;;;;5.13;2.47;;;;;;;;;;5049499;28;20087;-64
2022/11/03 09:51:23;;;;;;;1.87;1.40;;;;;;;;;;5049762;28;20028;-64
2022/11/03 09:53:50;;;;;;;2.33;1.43;;;;;;;;;;5049519;28;20025;-64
2022/11/03 09:56:22;;;;;;;2.33;1.77;;;;;;;;;;5049764;28;20028;-64
2022/11/03 09:58:48;;;;;;;5.90;1.67;;;;;;;;;;5054570;28;20115;-63
2022/11/03 10:01:15;;;;;;;2.93;2.27;;;;;;;;;;5054753;28;20037;-63
2022/11/03 10:03:42;;;;;;;2.33;1.77;;;;;;;;;;5054756;28;20427;-63
2022/11/03 10:06:09;;;;;;;3.40;2.27;;;;;;;;;;5054669;28;20051;-64
2022/11/03 10:08:37;;;;;;;2.00;1.70;;;;;;;;;;5054312;28;20029;-64
2022/11/03 10:11:06;;;;;;;2.23;1.77;;;;;;;;;;5049377;28;20096;-63
2022/11/03 10:13:34;;;;;;;1.63;1.50;;;;;;;;;;5048816;28;20057;-64
2022/11/03 10:16:06;;;;;;;2.67;1.97;;;;;;;;;;5049188;28;20143;-65
2022/11/03 10:18:33;;;;;;;2.40;1.80;;;;;;;;;;5047953;28;20033;-64
2022/11/03 10:21:03;;;;;;;1.83;1.50;;;;;;;;;;5053838;28;20560;-64
2022/11/03 10:23:30;;;;;;;4.60;2.77;;;;;;;;;;5054257;28;20027;-64
2022/11/03 10:26:10;;;;;;;2.77;1.53;;;;;;;;;;5054525;28;20032;-63
2022/11/03 10:28:37;;;;;;;3.10;2.23;;;;;;;;;;5054201;28;20021;-64
2022/11/03 10:31:17;;;;;;;2.33;1.67;;;;;;;;;;5053952;28;20349;-63
2022/11/03 10:33:53;;;;;;;2.13;1.53;;;;;;;;;;5048823;28;20024;-63
2022/11/03 10:36:20;;;;;;;2.80;1.63;;;;;;;;;;5048557;28;20389;-65
2022/11/03 10:38:47;;;;;;;2.37;1.70;;;;;;;;;;5048733;28;20108;-63
2022/11/03 10:41:13;;;;;;;3.47;2.23;;;;;;;;;;5048356;28;20484;-64
2022/11/03 10:43:41;;;;;;;2.30;2.00;;;;;;;;;;5054122;28;20048;-63
2022/11/03 10:46:11;;;;;;;3.60;1.93;;;;;;;;;;5053964;28;20017;-63
2022/11/03 10:48:37;;;;;;;4.03;2.87;;;;;;;;;;5053947;28;20028;-63
2022/11/03 10:51:05;;;;;;;3.27;2.47;;;;;;;;;;5053718;28;20048;-63
2022/11/03 10:53:31;;;;;;;3.80;2.50;;;;;;;;;;5052747;28;20086;-63
2022/11/03 10:55:58;;;;;;;4.50;2.67;;;;;;;;;;5048251;28;20182;-63
2022/11/03 10:58:25;;;;;;;2.27;1.80;;;;;;;;;;5048207;28;20032;-63
2022/11/03 11:00:51;;;;;;;2.03;1.83;;;;;;;;;;5048204;28;20431;-64
2022/11/03 11:03:18;;;;;;;2.70;1.27;;;;;;;;;;5048276;28;20550;-64
2022/11/03 11:05:46;;;;;;;2.63;2.20;;;;;;;;;;5053288;28;20445;-65
2022/11/03 11:08:14;;;;;;;4.03;2.33;;;;;;;;;;5053679;28;20487;-64
2022/11/03 11:10:43;;;;;;;2.03;1.73;;;;;;;;;;5053489;28;20492;-64
2022/11/03 11:13:23;;;;;;;3.03;2.60;;;;;;;;;;5053461;28;20059;-64
2022/11/03 11:15:54;;;;;;;4.10;2.70;;;;;;;;;;5052747;28;20017;-63
2022/11/03 11:18:29;;;;;;;4.23;3.07;;;;;;;;;;5047561;28;20025;-63
2022/11/03 11:20:56;;;;;;;3.50;2.43;;;;;;;;;;5047801;28;20044;-63
2022/11/03 11:23:29;;;;;;;2.70;2.30;;;;;;;;;;5048098;28;20029;-63
2022/11/03 11:26:10;;;;;;;2.27;1.90;;;;;;;;;;5048292;28;20025;-63
2022/11/03 11:28:37;;;;;;;2.20;1.90;;;;;;;;;;5053216;28;20100;-62
2022/11/03 11:31:22;;;;;;;2.23;1.87;;;;;;;;;;5051852;28;20058;-63
2022/11/03 11:33:49;;;;;;;;;;;;;;;;;;5053433;28;20039;-62
2022/11/03 11:36:23;;;;;;;2.30;2.00;;;;;;;;;;5053133;28;19951;-63
2022/11/03 11:38:55;;;;;;;1.60;1.20;;;;;;;;;;5050633;28;20420;-63
2022/11/03 11:41:42;;;;;;;3.23;2.13;;;;;;;;;;5046983;28;20033;-63
2022/11/03 11:44:29;;;;;;;5.63;2.43;;;;;;;;;;5047378;28;20466;-63
2022/11/03 11:46:57;;;;;;;2.63;2.10;;;;;;;;;;5037178;28;20045;-63
2022/11/03 11:49:23;;;;;;;3.00;2.30;;;;;;;;;;5050256;28;20032;-63
2022/11/03 11:51:51;;;;;;;2.43;2.07;;;;;;;;;;5052902;28;20021;-63
2022/11/03 11:54:19;;;;;;;2.03;1.83;;;;;;;;;;5052407;28;20029;-63
2022/11/03 11:56:47;;;;;;;1.23;1.13;;;;;;;;;;5052708;28;20020;-62
2022/11/03 11:59:19;;;;;;;2.60;1.90;;;;;;;;;;5052631;28;20096;-62
2022/11/03 12:01:49;;;;;;;2.07;1.63;;;;;;;;;;5049017;28;20029;-63
2022/11/03 12:04:24;;;;;;;2.80;2.07;;;;;;;;;;5047281;28;20017;-62
2022/11/03 12:06:50;;;;;;;2.00;1.77;;;;;;;;;;5046781;28;20033;-63
2022/11/03 12:09:18;;;;;;;3.63;2.37;;;;;;;;;;5047233;28;20025;-63
2022/11/03 12:11:47;;;;;;;2.27;1.73;;;;;;;;;;5050200;28;20021;-63
2022/11/03 12:14:25;;;;;;;2.17;1.77;;;;;;;;;;5052204;28;20033;-62
2022/11/03 12:16:52;;;;;;;3.73;2.57;;;;;;;;;;5052012;28;20361;-63
2022/11/03 12:19:37;;;;;;;1.93;1.73;;;;;;;;;;5052409;28;20029;-62
2022/11/03 12:22:05;;;;;;;1.65;1.48;;;;;;;;;;5052507;28;20464;-62
2022/11/03 12:24:32;;;;;;;2.87;1.80;;;;;;;;;;5047467;28;20029;-62
2022/11/03 12:26:59;;;;;;;5.03;2.20;;;;;;;;;;5046659;28;20147;-62
2022/11/03 12:29:26;;;;;;;1.87;1.70;;;;;;;;;;5046758;28;20028;-62
2022/11/03 12:31:53;;;;;;;4.97;2.63;;;;;;;;;;5046724;28;20098;-63
2022/11/03 12:34:19;;;;;;;3.00;2.67;;;;;;;;;;5050591;28;20028;-62
2022/11/03 12:36:46;;;;;;;2.50;2.20;;;;;;;;;;5052258;28;20033;-62
2022/11/03 12:39:13;;;;;;;4.57;2.43;;;;;;;;;;5052198;28;20024;-62
2022/11/03 12:41:39;;;;;;;2.73;2.43;;;;;;;;;;5051554;28;20031;-62
2022/11/03 12:44:06;;;;;;;3.80;2.93;;;;;;;;;;5055847;28;20060;-62
2022/11/03 12:46:33;;;;;;;5.77;2.80;;;;;;;;;;5052483;28;20044;-62
2022/11/03 12:48:59;;;;;;;2.40;2.20;;;;;;;;;;5050817;28;20082;-63
2022/11/03 12:51:26;;;;;;;3.93;2.93;;;;;;;;;;5050828;28;20075;-63
2022/11/03 12:53:53;;;;;;;3.70;2.67;;;;;;;;;;5050450;28;20025;-62
2022/11/03 12:56:19;;;;;;;5.23;3.30;;;;;;;;;;5053686;28;20017;-63
2022/11/03 12:58:46;;;;;;;2.27;2.00;;;;;;;;;;5055773;28;20021;-62
2022/11/03 13:01:13;;;;;;;4.03;2.83;;;;;;;;;;5055778;28;20029;-62
2022/11/03 13:03:39;;;;;;;2.43;1.97;;;;;;;;;;5055797;28;20417;-62
2022/11/03 13:06:08;;;;;;;2.67;2.37;;;;;;;;;;5055609;28;20538;-62
2022/11/03 13:08:36;;;;;;;2.70;2.40;;;;;;;;;;5052727;28;20099;-62
2022/11/03 13:11:02;;;;;;;3.60;2.13;;;;;;;;;;5050403;28;20538;-62
2022/11/03 13:13:30;;;;;;;2.30;2.03;;;;;;;;;;5050263;28;20383;-62
2022/11/03 13:15:57;;;;;;;2.00;1.60;;;;;;;;;;5050472;28;20048;-62
2022/11/03 13:18:23;;;;;;;2.63;2.10;;;;;;;;;;5052207;28;20027;-62
2022/11/03 13:20:50;;;;;;;2.63;1.73;;;;;;;;;;5055514;28;20033;-62
2022/11/03 13:23:17;;;;;;;2.80;2.10;;;;;;;;;;5055403;28;20028;-62
2022/11/03 13:25:45;;;;;;;2.53;2.07;;;;;;;;;;5055278;28;20029;-62
2022/11/03 13:28:11;;;;;;;1.67;1.53;;;;;;;;;;5055446;28;20372;-63
2022/11/03 13:30:40;;;;;;;1.90;1.50;;;;;;;;;;5052467;28;20050;-62
2022/11/03 13:33:06;;;;;;;9.73;3.03;;;;;;;;;;5050010;28;20035;-63
2022/11/03 13:35:33;;;;;;;4.07;3.10;;;;;;;;;;5049332;28;20036;-62
2022/11/03 13:38:00;;;;;;;3.07;2.03;;;;;;;;;;5049717;28;20081;-62
2022/11/03 13:40:26;;;;;;;2.93;2.43;;;;;;;;;;5050972;28;20162;-62
2022/11/03 13:42:53;;;;;;;5.63;3.27;;;;;;;;;;5055224;28;20032;-62
2022/11/03 13:45:20;;;;;;;3.97;2.43;;;;;;;;;;5055080;28;20059;-62
2022/11/03 13:47:46;;;;;;;2.70;2.20;;;;;;;;;;5055106;28;20025;-62
2022/11/03 13:50:13;;;;;;;4.00;2.60;;;;;;;;;;5054793;28;20033;-63
2022/11/03 13:52:40;;;;;;;4.90;3.33;;;;;;;;;;5051956;28;20032;-62
2022/11/03 13:55:06;;;;;;;2.90;2.50;;;;;;;;;;5049563;28;20047;-62
2022/11/03 13:57:33;;;;;;;5.03;2.47;;;;;;;;;;5049404;28;20102;-62
2022/11/03 14:00:00;;;;;;;13.63;2.77;;;;;;;;;;5049635;28;20053;-62
2022/11/03 14:02:28;;;;;;;3.50;2.70;;;;;;;;;;5050232;28;20392;-62
2022/11/03 14:04:54;;;;;;;5.70;3.00;;;;;;;;;;5054686;28;20036;-62
2022/11/03 14:07:21;;;;;;;3.30;2.67;;;;;;;;;;5054629;28;20123;-62
2022/11/03 14:09:48;;;;;;;2.83;1.97;;;;;;;;;;5054340;28;20074;-62
2022/11/03 14:12:29;;;;;;;4.93;3.07;;;;;;;;;;5054732;28;20392;-62
2022/11/03 14:14:56;;;;;;;2.90;2.60;;;;;;;;;;5052178;28;20029;-62
2022/11/03 14:17:23;;;;;;;2.70;2.37;;;;;;;;;;5048938;28;20037;-62
2022/11/03 14:19:50;;;;;;;8.53;2.83;;;;;;;;;;5049191;28;20435;-63
2022/11/03 14:22:17;;;;;;;3.03;2.40;;;;;;;;;;5048706;28;20480;-62
2022/11/03 14:24:44;;;;;;;3.07;2.10;;;;;;;;;;5049946;28;20100;-62
2022/11/03 14:27:11;;;;;;;2.00;1.80;;;;;;;;;;5054388;28;20040;-62
2022/11/03 14:29:38;;;;;;;2.83;2.43;;;;;;;;;;5054249;28;20032;-66
2022/11/03 14:32:05;;;;;;;2.00;1.70;;;;;;;;;;5053092;28;20041;-64
2022/11/03 14:34:32;;;;;;;5.10;2.23;;;;;;;;;;5055431;28;20027;-66
2022/11/03 14:36:58;;;;;;;3.00;2.23;;;;;;;;;;5052786;28;20147;-64
2022/11/03 14:39:25;;;;;;;3.20;2.13;;;;;;;;;;5049234;28;20060;-65
2022/11/03 14:42:04;;;;;;;3.40;2.70;;;;;;;;;;5048847;28;20090;-64
2022/11/03 14:44:33;;;;;;;5.63;2.93;;;;;;;;;;5048199;28;20108;-66
2022/11/03 14:47:00;;;;;;;1.97;1.60;;;;;;;;;;5049506;28;20104;-64
2022/11/03 14:49:30;;;;;;;2.77;1.93;;;;;;;;;;5054043;28;20079;-67
2022/11/03 14:51:58;;;;;;;3.33;1.73;;;;;;;;;;5053857;28;20025;-66
2022/11/03 14:54:25;;;;;;;2.83;2.20;;;;;;;;;;5053915;28;20492;-68
2022/11/03 14:56:52;;;;;;;2.47;2.27;;;;;;;;;;5053670;28;20135;-67
2022/11/03 14:59:19;;;;;;;2.77;2.10;;;;;;;;;;5052666;28;20025;-66
2022/11/03 15:01:46;;;;;;;4.53;2.63;;;;;;;;;;5048355;28;20033;-67
2022/11/03 15:04:13;;;;;;;2.00;1.70;;;;;;;;;;5048884;28;20083;-68
2022/11/03 15:06:40;;;;;;;2.40;1.77;;;;;;;;;;5048270;28;20108;-67
2022/11/03 15:09:13;;;;;;;2.73;2.43;;;;;;;;;;5049014;28;20396;-68